createdAt,value
2018-02-14T07:42:06.088Z,1.20
2018-02-14T07:44:35.113Z,1.60
2018-02-14T07:47:04.137Z,1.90
2018-02-14T07:49:33.226Z,2.40
2018-02-14T07:52:02.241Z,2.90
2018-02-14T07:54:32.030Z,3.40
2018-02-14T07:57:01.068Z,3.90
2018-02-14T07:59:30.125Z,4.50
2018-02-14T08:01:59.130Z,5.00
2018-02-14T08:04:28.930Z,5.40
2018-02-14T08:06:57.950Z,5.80
2018-02-14T08:09:27.041Z,6.30
2018-02-14T08:11:56.856Z,6.80
2018-02-14T08:14:25.869Z,7.20
2018-02-14T08:16:54.933Z,7.80
2018-02-14T08:19:24.712Z,8.30
2018-02-14T08:21:53.765Z,8.80
2018-02-14T08:24:22.794Z,9.30
2018-02-14T08:26:51.850Z,9.90
2018-02-14T08:29:20.864Z,10.10
2018-02-14T08:31:49.916Z,10.50
2018-02-14T08:34:18.946Z,10.90
2018-02-14T08:36:47.989Z,11.40
2018-02-14T08:39:17.781Z,12.00
2018-02-14T08:41:46.874Z,12.40
2018-02-14T08:44:15.919Z,12.80
2018-02-14T08:46:44.937Z,13.10
2018-02-14T08:49:14.018Z,13.60
2018-02-14T08:51:43.052Z,13.70
2018-02-14T08:54:12.068Z,13.60
2018-02-14T08:56:41.884Z,13.80
2018-02-14T08:59:11.714Z,14.30
2018-02-14T09:01:40.742Z,14.70
2018-02-14T09:04:09.802Z,15.00
2018-02-14T09:06:38.830Z,15.30
2018-02-14T09:09:07.900Z,15.60
2018-02-14T09:11:36.922Z,15.80
2018-02-14T09:14:05.954Z,16.40
2018-02-14T09:16:35.802Z,16.30
2018-02-14T09:19:04.830Z,16.60
2018-02-14T09:21:33.844Z,16.90
2018-02-14T09:24:03.700Z,17.20
2018-02-14T09:26:32.721Z,17.60
2018-02-14T09:29:01.746Z,17.40
2018-02-14T09:31:30.798Z,17.60
2018-02-14T09:33:59.834Z,17.40
2018-02-14T09:36:28.880Z,17.70
2018-02-14T09:38:57.910Z,17.90
2018-02-14T09:41:26.985Z,17.80
2018-02-14T09:43:55.999Z,18.10
2018-02-14T09:46:25.020Z,18.40
2018-02-14T09:48:54.102Z,18.50
2018-02-14T09:51:23.892Z,18.60
2018-02-14T09:53:52.936Z,18.70
2018-02-14T09:56:21.985Z,18.90
2018-02-14T09:58:51.000Z,19.20
2018-02-14T10:01:20.830Z,19.60
2018-02-14T10:03:49.853Z,19.90
2018-02-14T10:06:18.910Z,19.80
2018-02-14T10:08:47.925Z,19.00
2018-02-14T10:11:16.987Z,18.90
2018-02-14T10:13:46.781Z,19.20
2018-02-14T10:16:15.836Z,19.60
2018-02-14T10:18:44.852Z,19.70
2018-02-14T10:21:13.905Z,20.30
2018-02-14T10:23:42.937Z,21.10
2018-02-14T10:26:11.989Z,21.00
2018-02-14T10:28:41.019Z,21.10
2018-02-14T10:31:10.099Z,20.80
2018-02-14T10:33:39.107Z,21.50
2018-02-14T10:36:08.137Z,22.00
2018-02-14T10:38:37.953Z,22.10
2018-02-14T10:41:07.740Z,21.80
2018-02-14T10:43:36.792Z,22.60
2018-02-14T10:46:05.827Z,22.80
2018-02-14T10:48:34.924Z,22.00
2018-02-14T10:51:03.974Z,22.80
2018-02-14T10:53:32.997Z,23.30
2018-02-14T10:56:02.052Z,23.30
2018-02-14T10:58:31.105Z,23.70
2018-02-14T11:01:02.054Z,22.50
2018-02-14T11:03:37.313Z,23.20
2018-02-14T11:06:11.741Z,23.40
2018-02-14T11:08:40.800Z,23.40
2018-02-14T11:11:09.841Z,23.40
2018-02-14T11:13:38.893Z,22.10
2018-02-14T11:16:08.721Z,22.60
2018-02-14T11:18:37.741Z,23.30
2018-02-14T11:21:06.794Z,24.10
2018-02-14T11:23:36.591Z,24.50
2018-02-14T11:26:05.667Z,24.80
2018-02-14T11:28:34.690Z,25.00
2018-02-14T11:31:04.505Z,24.90
2018-02-14T11:33:34.332Z,24.60
2018-02-14T11:36:04.121Z,24.80
2018-02-14T11:38:33.181Z,25.30
2018-02-14T11:41:02.220Z,25.60
2018-02-14T11:43:31.288Z,25.60
2018-02-14T11:46:00.413Z,25.10
2018-02-14T11:48:30.183Z,25.10
2018-02-14T11:50:59.281Z,25.30
2018-02-14T11:53:28.305Z,23.30
2018-02-14T11:55:58.097Z,23.00
2018-02-14T11:58:27.154Z,23.50
2018-02-14T12:00:56.169Z,24.70
2018-02-14T12:03:25.219Z,25.20
2018-02-14T12:05:54.245Z,25.00
2018-02-14T12:08:23.346Z,25.50
2018-02-14T12:10:52.356Z,26.00
2018-02-14T12:13:21.387Z,25.70
2018-02-14T12:15:51.218Z,25.10
2018-02-14T12:18:20.241Z,25.00
2018-02-14T12:20:49.273Z,25.00
2018-02-14T12:23:18.432Z,25.20
2018-02-14T12:25:47.451Z,25.90
2018-02-14T12:28:16.477Z,25.80
2018-02-14T12:30:45.537Z,26.10
2018-02-14T12:33:14.592Z,26.10
2018-02-14T12:35:43.618Z,26.20
2018-02-14T12:38:12.674Z,26.60
2018-02-14T12:40:41.698Z,27.10
2018-02-14T12:43:10.860Z,27.30
2018-02-14T12:45:39.877Z,27.70
2018-02-14T12:48:08.897Z,27.20
2018-02-14T12:50:37.974Z,27.20
2018-02-14T12:53:07.010Z,26.70
2018-02-14T12:55:36.784Z,26.50
2018-02-14T12:58:05.833Z,26.30
2018-02-14T13:00:34.848Z,26.50
2018-02-14T13:03:03.905Z,26.60
2018-02-14T13:05:33.004Z,26.70
2018-02-14T13:08:02.789Z,27.00
2018-02-14T13:10:31.813Z,27.30
2018-02-14T13:13:00.892Z,26.70
2018-02-14T13:15:30.678Z,27.00
2018-02-14T13:17:59.703Z,27.50
2018-02-14T13:20:28.787Z,28.00
2018-02-14T13:22:58.578Z,27.60
2018-02-14T13:25:27.599Z,28.10
2018-02-14T13:27:57.430Z,27.90
2018-02-14T13:30:26.450Z,27.70
2018-02-14T13:32:55.470Z,27.10
2018-02-14T13:35:24.507Z,27.60
2018-02-14T13:37:53.525Z,27.50
2018-02-14T13:40:22.613Z,27.10
2018-02-14T13:42:51.633Z,26.90
2018-02-14T13:45:20.669Z,26.60
2018-02-14T13:47:50.514Z,26.70
2018-02-14T13:50:19.545Z,26.40
2018-02-14T13:52:48.574Z,26.40
2018-02-14T13:55:17.638Z,26.60
2018-02-14T13:57:46.656Z,26.00
2018-02-14T14:00:15.723Z,26.00
2018-02-14T14:02:44.749Z,26.20
2018-02-14T14:05:13.807Z,26.00
2018-02-14T14:07:42.861Z,26.40
2018-02-14T14:10:11.884Z,25.80
2018-02-14T14:12:40.970Z,25.40
2018-02-14T14:15:09.991Z,25.30
2018-02-14T14:17:39.018Z,25.20
2018-02-14T14:20:08.150Z,25.40
2018-02-14T14:22:37.182Z,25.20
2018-02-14T14:25:06.997Z,25.20
2018-02-14T14:27:36.794Z,25.00
2018-02-14T14:30:05.858Z,25.10
2018-02-14T14:32:34.878Z,24.50
2018-02-14T14:35:03.938Z,24.20
2018-02-14T14:37:32.965Z,23.90
2018-02-14T14:40:02.026Z,23.40
2018-02-14T14:42:31.045Z,23.70
2018-02-14T14:45:00.140Z,23.70
2018-02-14T14:47:29.167Z,23.50
2018-02-14T14:49:58.953Z,23.30
2018-02-14T14:52:28.010Z,23.30
2018-02-14T14:54:57.076Z,23.30
2018-02-14T14:57:26.850Z,23.50
2018-02-14T14:59:55.907Z,23.30
2018-02-14T15:02:24.934Z,22.90
2018-02-14T15:04:54.000Z,22.50
2018-02-14T15:07:23.030Z,22.30
2018-02-14T15:09:52.130Z,22.00
2018-02-14T15:12:21.158Z,21.60
2018-02-14T15:14:50.186Z,20.10
2018-02-14T15:17:19.277Z,17.80
2018-02-14T15:19:48.301Z,15.70
2018-02-14T15:22:17.325Z,14.10
2018-02-14T15:24:46.481Z,12.60
2018-02-14T15:27:15.502Z,11.60
2018-02-14T15:29:45.287Z,10.90
2018-02-14T15:32:14.349Z,10.20
2018-02-14T15:34:43.378Z,9.70
2018-02-14T15:37:12.426Z,8.90
2018-02-14T15:39:41.440Z,8.40
2018-02-14T15:42:10.530Z,8.10
2018-02-14T15:44:39.562Z,7.60
2018-02-14T15:47:08.587Z,7.40
2018-02-14T15:49:37.628Z,7.10
2018-02-14T15:52:06.636Z,6.80
2018-02-14T15:54:35.650Z,6.60
2018-02-14T15:57:05.458Z,6.50
2018-02-14T15:59:35.237Z,6.10
2018-02-14T16:02:04.282Z,5.90
2018-02-14T16:04:33.327Z,5.90
2018-02-14T16:07:02.343Z,5.80
2018-02-14T16:09:31.351Z,5.60
2018-02-14T16:12:01.130Z,5.30
2018-02-14T16:14:30.202Z,5.30
2018-02-14T16:17:05.181Z,5.20
2018-02-14T16:19:34.994Z,5.00
2018-02-14T16:22:05.339Z,4.90
2018-02-14T16:24:34.423Z,4.80
2018-02-14T16:27:04.184Z,4.80
2018-02-14T16:29:33.201Z,4.60
2018-02-14T16:32:02.246Z,4.50
2018-02-14T16:34:31.253Z,4.40
2018-02-14T16:37:00.302Z,4.10
2018-02-14T16:39:30.090Z,3.80
2018-02-14T16:41:59.170Z,3.70
2018-02-14T16:44:28.182Z,3.30
2018-02-14T16:46:57.200Z,3.30
2018-02-14T16:49:27.014Z,3.40
2018-02-14T16:51:56.795Z,3.00
2018-02-14T16:54:26.055Z,2.90
2018-02-14T16:56:55.070Z,2.90
2018-02-14T16:59:24.122Z,2.30
2018-02-14T17:01:53.142Z,2.60
2018-02-14T17:04:22.186Z,2.20
2018-02-14T17:06:51.206Z,2.30
2018-02-14T17:09:20.265Z,1.70
2018-02-14T17:11:49.276Z,1.80
2018-02-14T17:14:18.294Z,1.90
2018-02-14T17:16:47.358Z,1.90
2018-02-14T17:19:16.373Z,1.80
2018-02-14T17:21:45.392Z,1.80
2018-02-14T17:24:14.541Z,1.80
2018-02-14T17:26:43.561Z,1.70
2018-02-14T17:29:13.286Z,1.70
2018-02-14T17:31:42.339Z,1.80
2018-02-14T17:34:12.114Z,1.70
2018-02-14T17:36:41.161Z,1.60
2018-02-14T17:39:10.178Z,1.40
2018-02-14T17:41:39.344Z,1.50
2018-02-14T17:44:08.373Z,1.40
2018-02-14T17:46:37.397Z,1.40
2018-02-14T17:49:06.474Z,1.40
2018-02-14T17:51:35.490Z,1.30
2018-02-14T17:54:04.505Z,1.20
2018-02-14T17:56:34.321Z,1.30
2018-02-14T17:59:04.101Z,1.20
2018-02-14T18:01:33.175Z,1.10
2018-02-14T18:04:02.185Z,1.20
2018-02-14T18:06:32.051Z,1.00
2018-02-14T18:09:01.081Z,0.80
2018-02-14T18:11:30.117Z,0.70
2018-02-14T18:13:59.202Z,0.70
2018-02-14T18:16:29.033Z,0.80
2018-02-14T18:18:58.936Z,0.80
2018-02-14T18:21:28.735Z,0.70
2018-02-14T18:23:57.784Z,0.60
2018-02-14T18:26:26.846Z,0.60
2018-02-14T18:28:55.888Z,0.50
2018-02-14T18:31:24.919Z,0.50
2018-02-14T18:33:53.979Z,0.30
2018-02-14T18:36:23.051Z,0.40
2018-02-14T18:38:52.078Z,0.30
2018-02-14T18:41:21.109Z,0.30
2018-02-14T18:43:50.212Z,0.10
2018-02-14T18:46:19.226Z,0.20
2018-02-14T18:48:48.722Z,0.10
2018-02-14T18:51:17.839Z,0.30
2018-02-14T18:56:42.179Z,0.20
2018-02-14T18:59:11.286Z,0.20
